Laudanum — FAC9196 — position and weather

sailwx.info

Track history (hours):
 
Tides and Currents Weather Stations Pressure Air Temp Water Temp Dewpoint Dewpoint Depression Visibility Wind Speed Wind Dir Waves Ship Positions

Laudanum

Last reported at 2018-Feb-12 13:40 UTC. Time now 2018-Feb-18 07:03 UTC.
Position N 47°35' W 003°02'.

Type: Sailing vessel. MMSI: 227360690.

Date/timePositionNaut miles runAvg speedWind from/ knotsBaromVisibWave heightAir tempDewpointWater temp
2018-Feb-12 13:40N 47°35' W 003°02'0 0.0
2018-Feb-12 13:28N 47°35' W 003°02'0 0.0
2018-Feb-12 12:58N 47°35' W 003°02'0 0.0
2018-Feb-12 12:28N 47°35' W 003°02'0 0.0
2018-Feb-12 11:58N 47°35' W 003°02'0 0.0
2018-Feb-12 11:28N 47°35' W 003°02'0 0.0
2018-Feb-12 10:58N 47°35' W 003°02'0 0.0
2018-Feb-12 10:28N 47°35' W 003°02'0 0.0
2018-Feb-12 09:58N 47°35' W 003°02'0 0.0
2018-Feb-12 09:28N 47°35' W 003°02'0 0.0
2018-Feb-12 08:58N 47°35' W 003°02'0 0.0
2018-Feb-12 08:28N 47°35' W 003°02'0 0.0
2018-Feb-12 07:58N 47°35' W 003°02'0 0.0
2018-Feb-12 07:28N 47°35' W 003°02'0 0.0
2018-Feb-12 06:58N 47°35' W 003°02'0 0.0
2018-Feb-12 06:28N 47°35' W 003°02'0 0.0
2018-Feb-12 05:58N 47°35' W 003°02'0 0.0
2018-Feb-12 05:28N 47°35' W 003°02'0 0.0
2018-Feb-12 04:58N 47°35' W 003°02'0 0.0
2018-Feb-12 04:28N 47°35' W 003°02'0 0.0
2018-Feb-12 03:58N 47°35' W 003°02'0 0.0
2018-Feb-12 03:28N 47°35' W 003°02'0 0.0
2018-Feb-12 02:55N 47°35' W 003°02'0 0.0
2018-Feb-12 02:28N 47°35' W 003°02'0 0.0
2018-Feb-12 01:58N 47°35' W 003°02'0 0.0
2018-Feb-12 01:28N 47°35' W 003°02'0 0.0
2018-Feb-12 00:58N 47°35' W 003°02'0 0.0
2018-Feb-12 00:28N 47°35' W 003°02'0 0.0
2018-Feb-11 23:58N 47°35' W 003°02'0 0.0
2018-Feb-11 23:28N 47°35' W 003°02'0 0.0
2018-Feb-11 22:58N 47°35' W 003°02'0 0.0
2018-Feb-11 22:28N 47°35' W 003°02'0 0.0
2018-Feb-11 21:58N 47°35' W 003°02'0 0.0
2018-Feb-11 21:30N 47°35' W 003°02'0 0.0
2018-Feb-11 18:27N 47°35' W 003°02'0 0.0
2018-Feb-11 17:21N 47°35' W 003°02'0 0.0
2018-Feb-11 16:58N 47°35' W 003°02'0 0.0
2018-Feb-11 16:28N 47°35' W 003°02'0 0.0
2018-Feb-11 15:58N 47°35' W 003°02'0 0.0
2018-Feb-11 15:28N 47°35' W 003°02'0 0.0
2018-Feb-11 14:58N 47°35' W 003°02'0 0.0
2018-Feb-11 14:28N 47°35' W 003°02'0 0.0
2018-Feb-11 13:58N 47°35' W 003°02'0 0.0
2018-Feb-11 13:28N 47°35' W 003°02'2 3.7
2018-Feb-11 13:01N 47°34' W 003°01'4 8.0
2018-Feb-11 12:31N 47°31' W 003°04'2 3.9
2018-Feb-11 12:00N 47°31' W 003°01'1 1.6
2018-Feb-11 11:30N 47°31' W 003°01'2 4.6
2018-Feb-11 11:00N 47°30' W 003°05'1 2.3
2018-Feb-11 10:28N 47°29' W 003°06'0 0.0
2018-Feb-11 09:58N 47°29' W 003°06'0 0.0
2018-Feb-11 09:28N 47°29' W 003°06'0 0.0
2018-Feb-11 08:58N 47°29' W 003°06'0 0.0
2018-Feb-11 08:28N 47°29' W 003°06'0 0.0
2018-Feb-11 07:58N 47°29' W 003°06'0 0.0
2018-Feb-11 07:28N 47°29' W 003°06'0 0.0
2018-Feb-11 06:58N 47°29' W 003°06'0 0.0
2018-Feb-11 06:28N 47°29' W 003°06'0 0.0
2018-Feb-11 05:58N 47°29' W 003°06'0 0.0
2018-Feb-11 05:28N 47°29' W 003°06'0 0.0
2018-Feb-11 04:58N 47°29' W 003°06'0 0.0
2018-Feb-11 04:28N 47°29' W 003°06'0 0.0
2018-Feb-11 03:58N 47°29' W 003°06'0 0.0
2018-Feb-11 03:28N 47°29' W 003°06'0 0.0
2018-Feb-11 02:58N 47°29' W 003°06'0 0.0
2018-Feb-11 02:28N 47°29' W 003°06'0 0.0
2018-Feb-11 01:58N 47°29' W 003°06'0 0.0
2018-Feb-11 01:28N 47°29' W 003°06'0 0.0
2018-Feb-11 00:58N 47°29' W 003°06'0 0.0
2018-Feb-11 00:28N 47°29' W 003°06'0 0.0
2018-Feb-10 23:58N 47°29' W 003°06'0 0.0
2018-Feb-10 23:28N 47°29' W 003°06'0 0.0
2018-Feb-10 22:58N 47°29' W 003°06'0 0.0
2018-Feb-10 22:28N 47°29' W 003°06'0 0.0
2018-Feb-10 21:58N 47°29' W 003°06'0 0.0
2018-Feb-10 21:28N 47°29' W 003°06'0 0.0
2018-Feb-10 20:58N 47°29' W 003°06'0 0.0
2018-Feb-10 20:28N 47°29' W 003°06'0 0.0
2018-Feb-10 19:55N 47°29' W 003°06'0 0.0
2018-Feb-10 19:28N 47°29' W 003°06'0 0.0
2018-Feb-10 18:55N 47°29' W 003°06'0 0.0
2018-Feb-10 18:25N 47°29' W 003°06'0 0.0
2018-Feb-10 17:58N 47°29' W 003°06'0 0.0
2018-Feb-10 17:25N 47°29' W 003°06'0 0.0
2018-Feb-10 16:58N 47°29' W 003°06'0 0.4
2018-Feb-10 16:30N 47°29' W 003°06'2 4.9
2018-Feb-10 16:00N 47°28' W 003°03'2 3.4
2018-Feb-10 15:30N 47°27' W 003°01'2 4.1
2018-Feb-10 15:00N 47°29' W 002°59'3 5.4
2018-Feb-10 14:30N 47°31' W 002°59'3 5.9
2018-Feb-10 13:59N 47°34' W 003°01'1 2.6
2018-Feb-10 13:30N 47°35' W 003°02'0 0.0
2018-Feb-10 13:00N 47°35' W 003°02'0 0.0
2018-Feb-10 12:30N 47°35' W 003°02'0 0.0
2018-Feb-10 12:00N 47°35' W 003°02'0 0.0
2018-Feb-10 11:30N 47°35' W 003°02'0 0.0
2018-Feb-10 11:00N 47°35' W 003°02'0 0.0
2018-Feb-10 10:30N 47°35' W 003°02'0 0.0
2018-Feb-10 10:00N 47°35' W 003°02'0 0.0
2018-Feb-10 09:30N 47°35' W 003°02'0 0.0
2018-Feb-10 09:00N 47°35' W 003°02'0 0.0
2018-Feb-10 08:30N 47°35' W 003°02'0 0.0
2018-Feb-10 08:00N 47°35' W 003°02'0 0.0
2018-Feb-10 07:30N 47°35' W 003°02'0 0.0
2018-Feb-10 07:00N 47°35' W 003°02'0 0.0
2018-Feb-10 06:30N 47°35' W 003°02'0 0.0
2018-Feb-10 06:00N 47°35' W 003°02'0 0.0
2018-Feb-10 05:30N 47°35' W 003°02'0 0.0
2018-Feb-10 05:00N 47°35' W 003°02'0 0.0
2018-Feb-10 04:30N 47°35' W 003°02'0 0.0
2018-Feb-10 04:00N 47°35' W 003°02'0 0.0
2018-Feb-10 03:30N 47°35' W 003°02'0 0.0
2018-Feb-10 03:00N 47°35' W 003°02'0 0.0
2018-Feb-10 02:27N 47°35' W 003°02'0 0.0
2018-Feb-10 02:00N 47°35' W 003°02'0 0.0
2018-Feb-10 01:30N 47°35' W 003°02'0 0.0
2018-Feb-10 01:00N 47°35' W 003°02'0 0.0
2018-Feb-10 00:31N 47°35' W 003°02'0 0.0
2018-Feb-10 00:00N 47°35' W 003°02'0 0.0
2018-Feb-09 23:30N 47°35' W 003°02'0 0.0
2018-Feb-09 23:00N 47°35' W 003°02'0 0.0
2018-Feb-09 22:45N 47°35' W 003°02'0 0.0
2018-Feb-09 22:30N 47°35' W 003°02'0 0.0
2018-Feb-09 22:00N 47°35' W 003°02'  
Track history (hours):
 
Tides and Currents Weather Stations Pressure Air Temp Water Temp Dewpoint Dewpoint Depression Visibility Wind Speed Wind Dir Waves Ship Positions

Laudanum

Last reported at 2018-Feb-12 13:40 UTC. Time now 2018-Feb-18 07:03 UTC.
Position N 47°35' W 003°02'.

Type: Sailing vessel. MMSI: 227360690.

Date/timePositionNaut miles runAvg speedWind from/ knotsBaromVisibWave heightAir tempDewpointWater temp
2018-Feb-12 13:40N 47°35' W 003°02'0 0.0
2018-Feb-12 13:28N 47°35' W 003°02'0 0.0
2018-Feb-12 12:58N 47°35' W 003°02'0 0.0
2018-Feb-12 12:28N 47°35' W 003°02'0 0.0
2018-Feb-12 11:58N 47°35' W 003°02'0 0.0
2018-Feb-12 11:28N 47°35' W 003°02'0 0.0
2018-Feb-12 10:58N 47°35' W 003°02'0 0.0
2018-Feb-12 10:28N 47°35' W 003°02'0 0.0
2018-Feb-12 09:58N 47°35' W 003°02'0 0.0
2018-Feb-12 09:28N 47°35' W 003°02'0 0.0
2018-Feb-12 08:58N 47°35' W 003°02'0 0.0
2018-Feb-12 08:28N 47°35' W 003°02'0 0.0
2018-Feb-12 07:58N 47°35' W 003°02'0 0.0
2018-Feb-12 07:28N 47°35' W 003°02'0 0.0
2018-Feb-12 06:58N 47°35' W 003°02'0 0.0
2018-Feb-12 06:28N 47°35' W 003°02'0 0.0
2018-Feb-12 05:58N 47°35' W 003°02'0 0.0
2018-Feb-12 05:28N 47°35' W 003°02'0 0.0
2018-Feb-12 04:58N 47°35' W 003°02'0 0.0
2018-Feb-12 04:28N 47°35' W 003°02'0 0.0
2018-Feb-12 03:58N 47°35' W 003°02'0 0.0
2018-Feb-12 03:28N 47°35' W 003°02'0 0.0
2018-Feb-12 02:55N 47°35' W 003°02'0 0.0
2018-Feb-12 02:28N 47°35' W 003°02'0 0.0
2018-Feb-12 01:58N 47°35' W 003°02'0 0.0
2018-Feb-12 01:28N 47°35' W 003°02'0 0.0
2018-Feb-12 00:58N 47°35' W 003°02'0 0.0
2018-Feb-12 00:28N 47°35' W 003°02'0 0.0
2018-Feb-11 23:58N 47°35' W 003°02'0 0.0
2018-Feb-11 23:28N 47°35' W 003°02'0 0.0
2018-Feb-11 22:58N 47°35' W 003°02'0 0.0
2018-Feb-11 22:28N 47°35' W 003°02'0 0.0
2018-Feb-11 21:58N 47°35' W 003°02'0 0.0
2018-Feb-11 21:30N 47°35' W 003°02'0 0.0
2018-Feb-11 18:27N 47°35' W 003°02'0 0.0
2018-Feb-11 17:21N 47°35' W 003°02'0 0.0
2018-Feb-11 16:58N 47°35' W 003°02'0 0.0
2018-Feb-11 16:28N 47°35' W 003°02'0 0.0
2018-Feb-11 15:58N 47°35' W 003°02'0 0.0
2018-Feb-11 15:28N 47°35' W 003°02'0 0.0
2018-Feb-11 14:58N 47°35' W 003°02'0 0.0
2018-Feb-11 14:28N 47°35' W 003°02'0 0.0
2018-Feb-11 13:58N 47°35' W 003°02'0 0.0
2018-Feb-11 13:28N 47°35' W 003°02'2 3.7
2018-Feb-11 13:01N 47°34' W 003°01'4 8.0
2018-Feb-11 12:31N 47°31' W 003°04'2 3.9
2018-Feb-11 12:00N 47°31' W 003°01'1 1.6
2018-Feb-11 11:30N 47°31' W 003°01'2 4.6
2018-Feb-11 11:00N 47°30' W 003°05'1 2.3
2018-Feb-11 10:28N 47°29' W 003°06'0 0.0
2018-Feb-11 09:58N 47°29' W 003°06'0 0.0
2018-Feb-11 09:28N 47°29' W 003°06'0 0.0
2018-Feb-11 08:58N 47°29' W 003°06'0 0.0
2018-Feb-11 08:28N 47°29' W 003°06'0 0.0
2018-Feb-11 07:58N 47°29' W 003°06'0 0.0
2018-Feb-11 07:28N 47°29' W 003°06'0 0.0
2018-Feb-11 06:58N 47°29' W 003°06'0 0.0
2018-Feb-11 06:28N 47°29' W 003°06'0 0.0
2018-Feb-11 05:58N 47°29' W 003°06'0 0.0
2018-Feb-11 05:28N 47°29' W 003°06'0 0.0
2018-Feb-11 04:58N 47°29' W 003°06'0 0.0
2018-Feb-11 04:28N 47°29' W 003°06'0 0.0
2018-Feb-11 03:58N 47°29' W 003°06'0 0.0
2018-Feb-11 03:28N 47°29' W 003°06'0 0.0
2018-Feb-11 02:58N 47°29' W 003°06'0 0.0
2018-Feb-11 02:28N 47°29' W 003°06'0 0.0
2018-Feb-11 01:58N 47°29' W 003°06'0 0.0
2018-Feb-11 01:28N 47°29' W 003°06'0 0.0
2018-Feb-11 00:58N 47°29' W 003°06'0 0.0
2018-Feb-11 00:28N 47°29' W 003°06'0 0.0
2018-Feb-10 23:58N 47°29' W 003°06'0 0.0
2018-Feb-10 23:28N 47°29' W 003°06'0 0.0
2018-Feb-10 22:58N 47°29' W 003°06'0 0.0
2018-Feb-10 22:28N 47°29' W 003°06'0 0.0
2018-Feb-10 21:58N 47°29' W 003°06'0 0.0
2018-Feb-10 21:28N 47°29' W 003°06'0 0.0
2018-Feb-10 20:58N 47°29' W 003°06'0 0.0
2018-Feb-10 20:28N 47°29' W 003°06'0 0.0
2018-Feb-10 19:55N 47°29' W 003°06'0 0.0
2018-Feb-10 19:28N 47°29' W 003°06'0 0.0
2018-Feb-10 18:55N 47°29' W 003°06'0 0.0
2018-Feb-10 18:25N 47°29' W 003°06'0 0.0
2018-Feb-10 17:58N 47°29' W 003°06'0 0.0
2018-Feb-10 17:25N 47°29' W 003°06'0 0.0
2018-Feb-10 16:58N 47°29' W 003°06'0 0.4
2018-Feb-10 16:30N 47°29' W 003°06'2 4.9
2018-Feb-10 16:00N 47°28' W 003°03'2 3.4
2018-Feb-10 15:30N 47°27' W 003°01'2 4.1
2018-Feb-10 15:00N 47°29' W 002°59'3 5.4
2018-Feb-10 14:30N 47°31' W 002°59'3 5.9
2018-Feb-10 13:59N 47°34' W 003°01'1 2.6
2018-Feb-10 13:30N 47°35' W 003°02'0 0.0
2018-Feb-10 13:00N 47°35' W 003°02'0 0.0
2018-Feb-10 12:30N 47°35' W 003°02'0 0.0
2018-Feb-10 12:00N 47°35' W 003°02'0 0.0
2018-Feb-10 11:30N 47°35' W 003°02'0 0.0
2018-Feb-10 11:00N 47°35' W 003°02'0 0.0
2018-Feb-10 10:30N 47°35' W 003°02'0 0.0
2018-Feb-10 10:00N 47°35' W 003°02'0 0.0
2018-Feb-10 09:30N 47°35' W 003°02'0 0.0
2018-Feb-10 09:00N 47°35' W 003°02'0 0.0
2018-Feb-10 08:30N 47°35' W 003°02'0 0.0
2018-Feb-10 08:00N 47°35' W 003°02'0 0.0
2018-Feb-10 07:30N 47°35' W 003°02'0 0.0
2018-Feb-10 07:00N 47°35' W 003°02'0 0.0
2018-Feb-10 06:30N 47°35' W 003°02'0 0.0
2018-Feb-10 06:00N 47°35' W 003°02'0 0.0
2018-Feb-10 05:30N 47°35' W 003°02'0 0.0
2018-Feb-10 05:00N 47°35' W 003°02'0 0.0
2018-Feb-10 04:30N 47°35' W 003°02'0 0.0
2018-Feb-10 04:00N 47°35' W 003°02'0 0.0
2018-Feb-10 03:30N 47°35' W 003°02'0 0.0
2018-Feb-10 03:00N 47°35' W 003°02'0 0.0
2018-Feb-10 02:27N 47°35' W 003°02'0 0.0
2018-Feb-10 02:00N 47°35' W 003°02'0 0.0
2018-Feb-10 01:30N 47°35' W 003°02'0 0.0
2018-Feb-10 01:00N 47°35' W 003°02'0 0.0
2018-Feb-10 00:31N 47°35' W 003°02'0 0.0
2018-Feb-10 00:00N 47°35' W 003°02'0 0.0
2018-Feb-09 23:30N 47°35' W 003°02'0 0.0
2018-Feb-09 23:00N 47°35' W 003°02'0 0.0
2018-Feb-09 22:45N 47°35' W 003°02'0 0.0
2018-Feb-09 22:30N 47°35' W 003°02'0 0.0
2018-Feb-09 22:00N 47°35' W 003°02'  

Dump ship's entire track history